Aviation Digital Data Service (ADDS)

Output produced by METARs form (2113 UTC 22 October 2017)
found at http://www.aviationweather.gov/adds/metars/
 
KJVW 222055Z AUTO 14004KT 10SM FEW012 21/18 A2999 RMK AO2
KJVW 222035Z AUTO 17003KT 9SM FEW012 21/18 A3000 RMK AO2
KJVW 222015Z AUTO 21004KT 10SM CLR 20/18 A3002 RMK AO2
KJVW 221955Z AUTO VRB04KT 9SM FEW011 SCT016 SCT100 20/18 A3002 RMK AO2
KJVW 221935Z AUTO 23007KT 9SM SCT010 SCT015 SCT100 20/18 A3003 RMK AO2
KJVW 221915Z AUTO 23004KT 10SM SCT009 SCT015 SCT085 20/17 A3004 RMK AO2
KJVW 221855Z AUTO 25003KT 9SM SCT009 BKN014 19/17 A3004 RMK AO2
KJVW 221835Z AUTO 28007KT 10SM 20/18 A3005 RMK AO2
KJVW 221815Z AUTO VRB04KT 10SM 19/18 A3005 RMK AO2
KJVW 221755Z AUTO VRB04KT 5SM -DZ FEW007 FEW042 19/17 A3006 RMK AO2
KJVW 221735Z AUTO 8SM -DZ CLR 19/17 A3006 RMK AO2
KJVW 221715Z AUTO VRB04KT 3SM -DZ FEW003 FEW023 SCT040 18/17 A3007 RMK AO2
KJVW 221655Z AUTO VRB04KT 1 3/4SM -DZ SCT002 SCT009 BKN033 18/17 A3007 RMK AO2
KJVW 221635Z AUTO 33003KT 6SM -DZ FEW009 FEW016 SCT022 18/17 A3009 RMK AO2
KJVW 221615Z AUTO 32007KT 4SM -DZ SCT009 BKN018 OVC045 18/17 A3008 RMK AO2
KJVW 221555Z AUTO 32007KT 1 1/4SM RA SCT001 OVC008 18/17 A3008 RMK AO2
KJVW 221535Z AUTO 30013G19KT 2 1/2SM -DZ FEW005 BKN009 OVC031 18/17 A3007 RMK AO2
KJVW 221515Z AUTO 31012G19KT 4SM -DZ SCT009 BKN022 OVC046 20/19 A3005 RMK AO2
KJVW 221455Z AUTO 00000G12KT 2SM -DZ SCT001 BKN008 OVC018 21/20 A3004 RMK AO2
KJVW 221435Z AUTO 00000KT 1 1/4SM RA SCT001 BKN014 BKN026 22/20 A3003 RMK AO2
KJVW 221415Z AUTO 00000KT 9SM -DZ CLR 23/20 A3002 RMK AO2
KJVW 221355Z AUTO 00000KT 9SM CLR 23/21 A3002 RMK AO2 LTG DSNT SE AND S
KJVW 221335Z AUTO 18005KT 8SM CLR 22/20 A3002 RMK AO2
KJVW 221315Z AUTO 13003KT 8SM CLR 22/20 A2999 RMK AO2 LTG DSNT SE-W
KJVW 221255Z AUTO 00000KT 9SM FEW070 22/20 A3000 RMK AO2 LTG DSNT ALQDS
KJVW 221235Z AUTO 00000KT 9SM CLR 21/20 A3001 RMK AO2 LTG DSNT ALQDS
KJVW 221215Z AUTO 30004KT 10SM CLR 21/20 A3001 RMK AO2 LTG DSNT SE-W
KJVW 221155Z AUTO 31003KT 8SM CLR 21/20 A2999 RMK AO2 LTG DSNT S AND NW
KJVW 221135Z AUTO 00000KT 10SM CLR 22/20 A2998 RMK AO2 LTG DSNT S AND NW
KJVW 221115Z AUTO 00000KT 9SM CLR 23/20 A2998 RMK AO2 LTG DSNT SE AND S
KJVW 221055Z AUTO 14006KT 9SM VCTS CLR 23/20 A2997 RMK AO2 LTG DSNT S
KJVW 221035Z AUTO 14007G14KT 110V180 10SM CLR 23/20 A2998 RMK AO2 LTG DSNT SE AND S
KJVW 221015Z AUTO 18008KT 9SM CLR 23/20 A2999 RMK AO2 LTG DSNT S
KJVW 220955Z AUTO 20008G16KT 10SM CLR 23/20 A2998 RMK AO2 LTG DSNT S
KJVW 220935Z AUTO 15007G20KT 10SM CLR 23/20 A2994 RMK AO2
KJVW 220915Z AUTO 16018G26KT 10SM CLR 23/20 A2993 RMK AO2
KJVW 220855Z AUTO 16019G29KT 10SM CLR 22/20 A2991 RMK AO2 LTG DSNT S
KJVW 220835Z AUTO 13021G44KT 6SM -DZ CLR 22/20 A2987 RMK AO2 LTG DSNT S
KJVW 220815Z AUTO 15018G37KT 6SM -DZ CLR 23/20 A2994 RMK AO2 LTG DSNT S
KJVW 220755Z AUTO 15017G30KT 7SM CLR 23/21 A2997 RMK AO2 LTG DSNT S
KJVW 220735Z AUTO 15015G22KT 9SM CLR 23/23 A3000 RMK AO2 LTG DSNT S
KJVW 220715Z AUTO 16014G20KT 8SM CLR 23/22 A3002 RMK AO2 LTG DSNT S
KJVW 220655Z AUTO 16018G27KT 9SM CLR 23/23 A3002 RMK AO2 LTG DSNT S
KJVW 220635Z AUTO 16022G36KT 9SM CLR 23/23 A3000 RMK AO2 LTG DSNT S
KJVW 220615Z AUTO 16015G25KT 9SM CLR 23/23 A3003 RMK AO2
KJVW 220555Z AUTO 14016G28KT 9SM FEW011 23/23 A3003 RMK AO2 LTG DSNT S AND SW
KJVW 220535Z AUTO VRB05G18KT 8SM FEW011 23/23 A3006 RMK AO2 LTG DSNT SW
KJVW 220515Z AUTO 13010G17KT 9SM FEW012 23/23 A3007 RMK AO2 LTG DSNT S AND SW
KJVW 220455Z AUTO 14008G18KT 8SM CLR 23/23 A3008 RMK AO2
KJVW 220435Z AUTO 13007G15KT 9SM CLR 23/23 A3008 RMK AO2 LTG DSNT S AND SW
KJVW 220415Z AUTO 12008G14KT 9SM CLR 23/23 A3009 RMK AO2 LTG DSNT S
KJVW 220355Z AUTO 12009KT 8SM CLR 23/23 A3010 RMK AO2
KJVW 220335Z AUTO 13005KT 8SM CLR 23/23 A3010 RMK AO2 LTG DSNT S AND SW
KJVW 220315Z AUTO 13005KT 7SM CLR 23/23 A3010 RMK AO2
KJVW 220255Z AUTO 11005KT 7SM CLR 23/23 A3010 RMK AO2
KJVW 220235Z AUTO 12004KT 6SM BR CLR 23/23 A3010 RMK AO2 LTG DSNT SW AND NW
KJVW 220215Z AUTO 11004KT 7SM FEW027 FEW037 SCT044 23/23 A3009 RMK AO2 LTG DSNT SW
KJVW 220155Z AUTO 16003KT 4SM BR FEW026 OVC036 24/24 A3010 RMK AO2 LTG DSNT SW
KJVW 220135Z AUTO 11004KT 8SM SCT034 BKN041 BKN046 23/23 A3007 RMK AO2 LTG DSNT S AND NW
KJVW 220115Z AUTO 11006KT 7SM SCT034 SCT042 SCT049 23/23 A3005 RMK AO2 LTG DSNT S AND NW
KJVW 220055Z AUTO 12004KT 8SM BKN033 BKN040 BKN046 23/23 A3005 RMK AO2 LTG DSNT NW
KJVW 220035Z AUTO 09005KT 6SM BR SCT033 SCT040 23/23 A3005 RMK AO2 LTG DSNT SW AND NW
KJVW 220015Z AUTO 10004KT 7SM FEW030 FEW042 23/23 A3005 RMK AO2 LTG DSNT SW AND NW
KJVW 212355Z AUTO 10005KT 7SM -DZ SCT030 SCT035 SCT042 23/23 A3004 RMK AO2 LTG DSNT S AND SW
KJVW 212335Z AUTO 10008KT 8SM CLR 23/23 A3003 RMK AO2 LTG DSNT SW AND W
KJVW 212315Z AUTO 10006KT 9SM FEW025 FEW031 FEW065 23/23 A3005 RMK AO2
KJVW 212255Z AUTO 10006KT 5SM VCTS BR FEW009 SCT031 BKN070 23/23 A3004 RMK AO2 LTG DSNT ALQDS
KJVW 212235Z AUTO 00000KT 7SM FEW008 SCT027 BKN065 23/22 A3004 RMK AO2 LTG DSNT ALQDS
KJVW 212215Z AUTO 16015G23KT 2SM VCTS BR FEW005 SCT026 BKN042 25/25 A3004 RMK AO2 LTG DSNT ALQDS VIS 1/4V5
KJVW 212155Z AUTO 11005KT 8SM CLR 27/27 A3002 RMK AO2 LTG DSNT SE AND S
KJVW 212135Z AUTO 10007KT 9SM FEW032 FEW037 SCT044 28/28 A3002 RMK AO2 LTG DSNT S AND SW
KJVW 212115Z AUTO 12005KT 10SM FEW035 SCT040 SCT050 28/28 A3002 RMK AO2
KJVW 212055Z AUTO 13007KT 100V160 9SM FEW037 29/29 A3002 RMK AO2 LTG DSNT SW
KJVW 212035Z AUTO 15010KT 8SM FEW032 FEW041 30/29 A3003 RMK AO2
KJVW 212015Z AUTO 14008G16KT 9SM SCT032 SCT040 BKN048 29/28 A3003 RMK AO2
KJVW 211955Z AUTO 17009G16KT 9SM SCT034 BKN044 BKN049 29/28 A3004 RMK AO2
KJVW 211935Z AUTO 17012KT 8SM FEW032 FEW041 FEW049 29/29 A3003 RMK AO2
KJVW 211915Z AUTO 17006G12KT 9SM SCT031 SCT039 BKN047 29/29 A3004 RMK AO2
KJVW 211855Z AUTO 16010KT 8SM BKN032 BKN040 28/28 A3005 RMK AO2
KJVW 211835Z AUTO 13007KT 8SM BKN030 BKN036 29/28 A3005 RMK AO2
KJVW 211815Z AUTO 16008G15KT 8SM BKN033 28/27 A3006 RMK AO2
KJVW 211755Z AUTO 7SM SCT030 28/27 A3007 RMK AO2
KJVW 211735Z AUTO 15009G18KT 9SM SCT028 28/28 A3008 RMK AO2
KJVW 211715Z AUTO 14010G17KT 8SM FEW027 28/28 A3009 RMK AO2
KJVW 211655Z AUTO 12012KT 9SM CLR 27/27 A3010 RMK AO2
KJVW 211635Z AUTO 12010KT 8SM CLR 27/27 A3011 RMK AO2
KJVW 211615Z AUTO 12010KT 9SM CLR 25/25 A3011 RMK AO2
KJVW 211555Z AUTO 13005G11KT 9SM CLR 25/24 A3011 RMK AO2
KJVW 211535Z AUTO 13008G15KT 9SM CLR 25/23 A3012 RMK AO2
KJVW 211515Z AUTO 14009KT 9SM CLR 24/22 A3012 RMK AO2
KJVW 211455Z AUTO 11009KT 8SM CLR 23/22 A3011 RMK AO2
KJVW 211435Z AUTO 13006KT 9SM CLR 23/21 A3011 RMK AO2
KJVW 211415Z AUTO 11008KT 9SM CLR 21/20 A3011 RMK AO2
KJVW 211355Z AUTO 11005KT 9SM CLR 20/18 A3010 RMK AO2
KJVW 211335Z AUTO 11007KT 9SM CLR 19/18 A3010 RMK AO2
KJVW 211315Z AUTO 12006KT 9SM CLR 19/17 A3010 RMK AO2
KJVW 211255Z AUTO 11004KT 9SM CLR 18/17 A3010 RMK AO2
KJVW 211235Z AUTO 11004KT 10SM CLR 18/16 A3009 RMK AO2
KJVW 211215Z AUTO 11004KT 10SM CLR 18/16 A3009 RMK AO2
KJVW 211155Z AUTO 10005KT 10SM CLR 18/16 A3008 RMK AO2
KJVW 211135Z AUTO 11005KT 10SM CLR 18/16 A3008 RMK AO2
KJVW 211115Z AUTO 10005KT 10SM CLR 18/16 A3008 RMK AO2
KJVW 211055Z AUTO 11005KT 9SM CLR 18/16 A3007 RMK AO2
KJVW 211035Z AUTO 10005KT 10SM CLR 18/17 A3007 RMK AO2
KJVW 211015Z AUTO 11004KT 10SM CLR 18/17 A3007 RMK AO2
KJVW 210955Z AUTO 10004KT 10SM FEW049 18/18 A3007 RMK AO2
KJVW 210935Z AUTO 12004KT 10SM CLR 18/17 A3007 RMK AO2
KJVW 210915Z AUTO 12004KT 10SM CLR 18/17 A3006 RMK AO2
KJVW 210855Z AUTO 12004KT 10SM CLR 18/17 A3006 RMK AO2
KJVW 210835Z AUTO 11003KT 10SM CLR 19/17 A3006 RMK AO2
KJVW 210815Z AUTO 11004KT 10SM CLR 19/18 A3006 RMK AO2
KJVW 210755Z AUTO 12004KT 10SM CLR 18/17 A3007 RMK AO2
KJVW 210735Z AUTO 00000KT 10SM CLR 18/17 A3007 RMK AO2
KJVW 210715Z AUTO 11004KT 10SM CLR 19/17 A3007 RMK AO2
KJVW 210655Z AUTO 11003KT 10SM CLR 19/17 A3007 RMK AO2
KJVW 210635Z AUTO 11005KT 10SM CLR 19/17 A3007 RMK AO2
KJVW 210615Z AUTO 11005KT 9SM CLR 19/17 A3007 RMK AO2
KJVW 210555Z AUTO 11003KT 10SM CLR 19/17 A3008 RMK AO2
KJVW 210535Z AUTO 10SM CLR 19/17 A3008 RMK AO2
KJVW 210515Z AUTO 10SM CLR 19/17 A3009 RMK AO2
KJVW 210455Z AUTO 11004KT 10SM CLR 19/17 A3009 RMK AO2
KJVW 210435Z AUTO 11005KT 10SM CLR 20/17 A3009 RMK AO2
KJVW 210415Z AUTO 11005KT 9SM CLR 20/17 A3009 RMK AO2
KJVW 210355Z AUTO 12006KT 9SM CLR 20/17 A3009 RMK AO2
KJVW 210335Z AUTO 11006KT 10SM CLR 20/17 A3009 RMK AO2
KJVW 210315Z AUTO 11006KT 9SM CLR 20/17 A3009 RMK AO2
KJVW 210255Z AUTO 12006KT 10SM CLR 19/17 A3009 RMK AO2
KJVW 210235Z AUTO 10007KT 9SM CLR 19/18 A3008 RMK AO2
KJVW 210215Z AUTO 00000KT 9SM CLR 18/17 A3008 RMK AO2
KJVW 210155Z AUTO 00000KT 9SM CLR 19/18 A3009 RMK AO2
KJVW 210135Z AUTO 00000KT 9SM CLR 19/18 A3008 RMK AO2
KJVW 210115Z AUTO 00000KT 9SM CLR 19/18 A3008 RMK AO2
KJVW 210055Z AUTO 00000KT 10SM CLR 19/18 A3009 RMK AO2
KJVW 210035Z AUTO 00000KT 9SM CLR 19/18 A3008 RMK AO2
KJVW 210015Z AUTO 00000KT 9SM CLR 19/18 A3008 RMK AO2
KJVW 202355Z AUTO 00000KT 10SM FEW046 20/19 A3007 RMK AO2
KJVW 202335Z AUTO 00000KT 10SM SCT046 21/19 A3008 RMK AO2
KJVW 202315Z AUTO 00000KT 8SM FEW050 22/19 A3008 RMK AO2
KJVW 202255Z AUTO 00000KT 9SM SCT050 22/19 A3008 RMK AO2
KJVW 202235Z AUTO 00000KT 9SM CLR 24/19 A3008 RMK AO2 LTG DSNT SW
KJVW 202215Z AUTO 11004KT 9SM CLR 25/20 A3008 RMK AO2
KJVW 202155Z AUTO 00000KT 8SM CLR 25/21 A3008 RMK AO2
KJVW 202135Z AUTO 12005KT 8SM CLR 26/21 A3008 RMK AO2
KJVW 202115Z AUTO 11004KT 8SM CLR 26/22 A3008 RMK AO2
KJVW 202055Z AUTO 12006G11KT 8SM CLR 26/22 A3008 RMK AO2
KJVW 202035Z AUTO 11007KT 8SM CLR 26/22 A3008 RMK AO2
KJVW 202015Z AUTO 14006G13KT 9SM FEW045 27/23 A3009 RMK AO2
KJVW 201955Z AUTO 12010KT 8SM CLR 28/23 A3009 RMK AO2
KJVW 201935Z AUTO 13007G13KT 8SM CLR 27/22 A3010 RMK AO2
KJVW 201915Z AUTO VRB06G12KT 8SM CLR 28/24 A3010 RMK AO2
KJVW 201855Z AUTO 12009KT 8SM CLR 27/23 A3011 RMK AO2
KJVW 201835Z AUTO 11007KT 8SM CLR 26/23 A3012 RMK AO2
KJVW 201815Z AUTO 13007G13KT 8SM CLR 27/24 A3014 RMK AO2
KJVW 201755Z AUTO 13007KT 8SM CLR 26/23 A3015 RMK AO2
KJVW 201735Z AUTO 13008G13KT 9SM CLR 26/24 A3016 RMK AO2
KJVW 201715Z AUTO VRB06G11KT 9SM CLR 26/22 A3017 RMK AO2
KJVW 201655Z AUTO 11007G12KT 9SM CLR 25/20 A3018 RMK AO2
KJVW 201635Z AUTO 11006G12KT 9SM CLR 25/18 A3019 RMK AO2 LTG DSNT SW
KJVW 201615Z AUTO 12006G12KT 8SM CLR 24/17 A3020 RMK AO2
KJVW 201555Z AUTO VRB05KT 9SM CLR 23/16 A3020 RMK AO2 LTG DSNT SW
KJVW 201535Z AUTO 12006KT 9SM CLR 22/16 A3021 RMK AO2
KJVW 201515Z AUTO 11005KT 7SM CLR 20/16 A3021 RMK AO2
KJVW 201455Z AUTO VRB03KT 8SM CLR 19/16 A3022 RMK AO2
KJVW 201435Z AUTO 11003KT 8SM CLR 18/15 A3022 RMK AO2
KJVW 201415Z AUTO 00000KT 8SM CLR 17/15 A3022 RMK AO2
KJVW 201355Z AUTO 00000KT 8SM CLR 16/15 A3021 RMK AO2
KJVW 201335Z AUTO 00000KT 7SM CLR 15/14 A3021 RMK AO2
KJVW 201315Z AUTO 00000KT 4SM BR CLR 14/14 A3021 RMK AO2
KJVW 201255Z AUTO 00000KT 4SM BR CLR 13/12 A3020 RMK AO2 LTG DSNT SW
KJVW 201235Z AUTO 00000KT 3SM BR CLR 11/11 A3020 RMK AO2 LTG DSNT SW
KJVW 201215Z AUTO 00000KT 1/4SM FG VV002 11/11 A3020 RMK AO2
KJVW 201155Z AUTO 00000KT 1SM BR CLR 11/11 A3020 RMK AO2
KJVW 201135Z AUTO 00000KT 1/4SM FG VV002 12/11 A3020 RMK AO2
KJVW 201115Z AUTO 00000KT 3/4SM BR VV005 12/11 A3019 RMK AO2
KJVW 201055Z AUTO 00000KT 3/4SM BR VV005 12/12 A3018 RMK AO2
KJVW 201035Z AUTO 00000KT 1 3/4SM BR CLR 11/11 A3018 RMK AO2
KJVW 201015Z AUTO 00000KT 5SM BR CLR 12/11 A3018 RMK AO2
KJVW 200955Z AUTO 00000KT 1/4SM FG VV002 12/11 A3018 RMK AO2
KJVW 200915Z AUTO 00000KT 4SM BR CLR 12/12 A3018 RMK AO2
KJVW 200855Z AUTO 00000KT 1/2SM FG VV005 11/11 A3018 RMK AO2
KJVW 200835Z AUTO 00000KT 1/4SM FG VV002 12/11 A3017 RMK AO2
KJVW 200815Z AUTO 00000KT 1/2SM FG VV005 11/11 A3018 RMK AO2 VIS 1/4V5
KJVW 200755Z AUTO 00000KT 3SM BR CLR 12/11 A3018 RMK AO2
KJVW 200735Z AUTO 00000KT 6SM BR CLR 12/12 A3019 RMK AO2
KJVW 200715Z AUTO 00000KT 1/4SM FG VV002 12/12 A3019 RMK AO2
KJVW 200655Z AUTO 00000KT 1 1/4SM BR CLR 12/12 A3019 RMK AO2 VIS 1/4V3
KJVW 200635Z AUTO 00000KT 1 3/4SM BR CLR 12/12 A3019 RMK AO2
KJVW 200615Z AUTO 00000KT 3/4SM BR VV005 12/12 A3019 RMK AO2
KJVW 200555Z AUTO 00000KT M1/4SM FG VV000 12/12 A3019 RMK AO2
KJVW 200535Z AUTO 00000KT 1/4SM FG VV002 12/12 A3019 RMK AO2
KJVW 200515Z AUTO 00000KT 1/4SM FG VV002 13/12 A3019 RMK AO2
KJVW 200455Z AUTO 00000KT 1/4SM FG VV002 13/12 A3019 RMK AO2 VIS M1/4V5
KJVW 200435Z AUTO 00000KT 1SM BR CLR 13/13 A3020 RMK AO2
KJVW 200415Z AUTO 00000KT 1/4SM FG VV002 14/13 A3020 RMK AO2
KJVW 200355Z AUTO 00000KT 1 1/2SM BR CLR 14/13 A3020 RMK AO2
KJVW 200335Z AUTO 00000KT 3/4SM BR VV005 13/13 A3020 RMK AO2 VIS 1/4V5
KJVW 200315Z AUTO 00000KT 3/4SM BR VV005 14/14 A3020 RMK AO2
KJVW 200255Z AUTO 00000KT 1/2SM FG VV005 14/14 A3020 RMK AO2
KJVW 200235Z AUTO 00000KT 1 1/4SM BR CLR 14/13 A3019 RMK AO2 VIS 3/4V4
KJVW 200215Z AUTO 00000KT 1SM BR CLR 15/14 A3018 RMK AO2 VIS 1/2V2 1/2
KJVW 200155Z AUTO 00000KT 1 1/2SM BR CLR 15/14 A3018 RMK AO2
KJVW 200135Z AUTO 00000KT 6SM BR CLR 15/15 A3018 RMK AO2
KJVW 200115Z AUTO 00000KT 3SM BR CLR 15/15 A3018 RMK AO2
KJVW 200055Z AUTO 00000KT 7SM CLR 16/15 A3018 RMK AO2
KJVW 200035Z AUTO 8SM CLR 17/16 A3017 RMK AO2
KJVW 200015Z AUTO 00000KT 10SM CLR 17/15 A3017 RMK AO2
KJVW 192355Z AUTO 00000KT 9SM CLR 18/16 A3016 RMK AO2
KJVW 192335Z AUTO 00000KT 10SM CLR 19/17 A3016 RMK AO2
KJVW 192315Z AUTO 00000KT 10SM CLR 20/17 A3015 RMK AO2
KJVW 192255Z AUTO 00000KT 9SM CLR 21/17 A3016 RMK AO2
KJVW 192235Z AUTO 00000KT 9SM CLR 23/18 A3016 RMK AO2
KJVW 192215Z AUTO 13003KT 8SM CLR 26/21 A3015 RMK AO2
KJVW 192155Z AUTO 12005KT 8SM CLR 26/21 A3015 RMK AO2
KJVW 192135Z AUTO 13004KT 9SM CLR 26/21 A3016 RMK AO2
KJVW 192115Z AUTO 00000KT 10SM CLR 26/21 A3016 RMK AO2